Time;durP1;ratioP1;P1;durP2;ratioP2;P2;SDS_P1;SDS_P2;PMS_P1;PMS_P2;Temp;Humidity;BMP_temperature;BMP_pressure;BME280_temperature;BME280_humidity;BME280_pressure;Samples;Min_cycle;Max_cycle;Signal;HPM_P1;HPM_P2
2021/03/20 00:00:32;;;;;;;22.32;9.98;;;;;;;-0.64;80.95;99338.94;1704546;83;21077;-72
2021/03/20 00:03:00;;;;;;;23.50;10.43;;;;;;;-0.68;80.98;99347.52;1704891;84;21084;-72
2021/03/20 00:05:28;;;;;;;29.60;11.75;;;;;;;-0.71;81.30;99342.62;1691560;84;22331;-73
2021/03/20 00:07:55;;;;;;;22.95;10.98;;;;;;;-0.71;81.57;99340.46;1676256;85;21179;-72
2021/03/20 00:10:24;;;;;;;25.55;11.83;;;;;;;-0.73;81.37;99343.41;1675758;84;21634;-73
2021/03/20 00:12:51;;;;;;;22.98;10.88;;;;;;;-0.75;81.47;99348.22;1675836;85;21603;-72
2021/03/20 00:15:22;;;;;;;27.27;12.88;;;;;;;-0.75;81.48;99346.88;1675764;85;21627;-72
2021/03/20 00:17:50;;;;;;;34.65;15.08;;;;;;;-0.77;81.57;99346.84;1675848;85;21671;-72
2021/03/20 00:20:24;;;;;;;30.95;14.53;;;;;;;-0.76;82.58;99347.13;1675735;84;22223;-73
2021/03/20 00:22:52;;;;;;;33.58;12.90;;;;;;;-0.76;82.41;99345.77;1675737;85;24825;-73
2021/03/20 00:25:19;;;;;;;27.37;12.73;;;;;;;-0.79;82.18;99343.57;1675604;85;21021;-72
2021/03/20 00:27:47;;;;;;;32.65;12.88;;;;;;;-0.84;82.07;99340.27;1675898;85;21124;-73
2021/03/20 00:30:15;;;;;;;30.68;14.55;;;;;;;-0.86;82.05;99338.34;1675861;85;21155;-72
2021/03/20 00:32:42;;;;;;;30.35;13.45;;;;;;;-0.87;82.08;99338.06;1675835;85;22791;-73
2021/03/20 00:35:12;;;;;;;31.23;13.32;;;;;;;-0.86;82.37;99338.34;1687153;84;21131;-73
2021/03/20 00:37:39;;;;;;;31.27;14.05;;;;;;;-0.83;82.24;99338.39;1704120;84;21180;-73
2021/03/20 00:40:10;;;;;;;28.65;12.07;;;;;;;-0.86;81.99;99342.92;1700572;84;21172;-73
2021/03/20 00:42:37;;;;;;;30.57;12.37;;;;;;;-0.93;81.96;99339.58;1692778;84;21577;-73
2021/03/20 00:45:09;;;;;;;32.55;13.20;;;;;;;-0.96;82.26;99338.19;1692597;83;21822;-73
2021/03/20 00:47:36;;;;;;;28.75;12.80;;;;;;;-0.96;82.17;99335.49;1692615;84;21187;-72
2021/03/20 00:50:06;;;;;;;26.33;10.72;;;;;;;-0.98;82.21;99337.62;1692532;84;21164;-73
2021/03/20 00:52:33;;;;;;;25.88;10.98;;;;;;;-0.97;82.67;99339.78;1692497;84;21168;-73
2021/03/20 00:55:01;;;;;;;24.37;10.45;;;;;;;-0.92;82.76;99339.33;1692608;83;21180;-72
2021/03/20 00:57:29;;;;;;;23.25;9.55;;;;;;;-0.88;82.59;99339.13;1692550;83;22312;-72
2021/03/20 00:59:56;;;;;;;19.62;9.05;;;;;;;-0.86;83.06;99338.34;1692368;84;21188;-73
2021/03/20 01:02:24;;;;;;;22.37;9.70;;;;;;;-0.78;83.63;99344.67;1692595;84;21195;-74
2021/03/20 01:04:51;;;;;;;21.73;9.33;;;;;;;-0.75;83.21;99332.05;1695060;84;21711;-74
2021/03/20 01:07:18;;;;;;;18.00;9.48;;;;;;;-0.73;82.82;99332.62;1704126;84;21195;-73
2021/03/20 01:09:46;;;;;;;19.55;8.75;;;;;;;-0.71;82.54;99339.11;1704171;84;21213;-74
2021/03/20 01:12:14;;;;;;;19.90;8.25;;;;;;;-0.72;82.33;99333.44;1703958;84;21163;-73
2021/03/20 01:14:41;;;;;;;15.95;7.60;;;;;;;-0.72;82.13;99338.30;1704161;84;21134;-74
2021/03/20 01:17:09;;;;;;;14.03;7.03;;;;;;;-0.74;81.98;99334.22;1704092;84;21604;-72
2021/03/20 01:19:36;;;;;;;11.93;6.47;;;;;;;-0.78;82.04;99335.23;1704097;83;21179;-72
2021/03/20 01:22:04;;;;;;;11.55;6.67;;;;;;;-0.79;81.99;99336.83;1673892;84;21188;-72
2021/03/20 01:24:32;;;;;;;13.13;6.83;;;;;;;-0.81;82.06;99337.08;1704012;84;21187;-73
2021/03/20 01:26:59;;;;;;;13.88;6.30;;;;;;;-0.81;82.44;99334.38;1704253;84;21551;-73
2021/03/20 01:29:26;;;;;;;11.85;5.60;;;;;;;-0.80;82.87;99334.67;1704108;84;21144;-73
2021/03/20 01:31:54;;;;;;;11.40;5.58;;;;;;;-0.80;82.70;99337.36;1704110;84;21235;-73
2021/03/20 01:34:22;;;;;;;12.03;5.58;;;;;;;-0.81;82.64;99341.12;1704162;84;22213;-72
2021/03/20 01:36:51;;;;;;;12.90;5.83;;;;;;;-0.81;82.49;99338.95;1704091;84;21163;-72
2021/03/20 01:39:18;;;;;;;11.85;6.05;;;;;;;-0.82;82.46;99340.84;1704072;84;21224;-72
2021/03/20 01:41:46;;;;;;;8.80;4.85;;;;;;;-0.84;82.65;99340.80;1704058;84;21046;-73
2021/03/20 01:44:20;;;;;;;14.53;6.53;;;;;;;-0.86;82.79;99339.70;1704011;84;21136;-74
2021/03/20 01:46:51;;;;;;;19.98;8.53;;;;;;;-0.88;82.62;99334.27;1704110;84;21513;-74
2021/03/20 01:49:38;;;;;;;20.57;9.10;;;;;;;-0.88;82.65;99343.17;1704067;84;21196;-74
2021/03/20 01:52:23;;;;;;;25.25;10.13;;;;;;;-0.88;82.54;99345.86;1704119;84;21114;-74
2021/03/20 01:55:12;;;;;;;40.78;12.47;;;;;;;-0.86;82.92;99348.31;1704065;83;21068;-74
2021/03/20 01:57:49;;;;;;;36.85;11.50;;;;;;;-0.84;82.82;99350.23;1704136;84;21135;-73
2021/03/20 02:00:28;;;;;;;28.67;9.40;;;;;;;-0.86;82.61;99348.31;1704528;82;21222;-72
2021/03/20 02:02:55;;;;;;;29.05;10.45;;;;;;;-0.85;82.35;99352.64;1704026;84;21135;-72
2021/03/20 02:05:28;;;;;;;20.23;7.55;;;;;;;-0.87;82.22;99356.11;1691796;84;20970;-73
2021/03/20 02:07:56;;;;;;;21.20;8.23;;;;;;;-0.90;82.21;99352.56;1675820;85;21620;-73
2021/03/20 02:10:24;;;;;;;32.03;9.75;;;;;;;-0.89;82.80;99365.79;1647010;85;21148;-73
2021/03/20 02:12:55;;;;;;;25.25;8.13;;;;;;;-0.87;82.50;99366.36;1675878;84;21403;-73
2021/03/20 02:15:30;;;;;;;26.27;8.88;;;;;;;-0.88;82.31;99362.03;1675764;84;21041;-74
2021/03/20 02:18:26;;;;;;;22.95;9.30;;;;;;;-0.90;82.07;99370.08;1675835;85;21572;-74
2021/03/20 02:21:21;;;;;;;19.20;7.25;;;;;;;-0.93;82.10;99368.69;1675631;85;21192;-73
2021/03/20 02:24:16;;;;;;;14.83;5.87;;;;;;;-0.92;82.61;99364.93;1675680;85;21215;-73
2021/03/20 02:27:32;;;;;;;20.12;7.55;;;;;;;-0.94;82.29;99364.36;1688541;82;22399;-72
2021/03/20 02:30:16;;;;;;;18.98;7.03;;;;;;;-0.94;82.17;99367.58;1686142;84;21184;-73
2021/03/20 02:32:55;;;;;;;23.30;7.80;;;;;;;-0.95;82.26;99370.81;1708538;83;21034;-73
2021/03/20 02:35:31;;;;;;;18.27;6.90;;;;;;;-0.93;82.97;99373.27;1714726;83;21640;-72
2021/03/20 02:38:31;;;;;;;13.72;6.72;;;;;;;-0.94;82.90;99368.93;1687521;83;21561;-72
2021/03/20 02:41:20;;;;;;;14.43;6.75;;;;;;;-0.95;82.76;99366.77;1697379;82;21755;-72
2021/03/20 02:44:16;;;;;;;14.30;6.33;;;;;;;-0.96;82.59;99374.56;1703705;84;21100;-73
2021/03/20 02:46:52;;;;;;;13.55;5.90;;;;;;;-0.94;82.48;99371.09;1703934;84;21636;-73
2021/03/20 02:49:28;;;;;;;10.32;5.55;;;;;;;-0.90;83.26;99370.08;1704052;84;21163;-73
2021/03/20 02:52:04;;;;;;;16.07;6.10;;;;;;;-0.88;83.07;99370.12;1704161;82;21633;-72
2021/03/20 02:54:40;;;;;;;11.68;5.95;;;;;;;-0.89;82.63;99372.53;1673381;84;22378;-72
2021/03/20 02:57:34;;;;;;;13.10;6.62;;;;;;;-0.90;82.58;99379.51;1704036;84;21065;-72
2021/03/20 03:00:13;;;;;;;11.85;6.10;;;;;;;-0.93;82.46;99374.08;1706379;83;21021;-73
2021/03/20 03:02:41;;;;;;;12.85;6.97;;;;;;;-0.92;83.13;99378.41;1712004;83;21183;-72
2021/03/20 03:05:14;;;;;;;15.13;7.00;;;;;;;-0.90;83.32;99378.98;1702544;83;21622;-72
2021/03/20 03:07:52;;;;;;;14.90;5.92;;;;;;;-0.88;83.12;99378.73;1683745;85;21225;-72
2021/03/20 03:10:30;;;;;;;12.43;6.53;;;;;;;-0.90;83.14;99381.67;1683739;85;21198;-72
2021/03/20 03:13:10;;;;;;;16.42;7.97;;;;;;;-0.91;83.17;99386.77;1683899;85;21152;-72
2021/03/20 03:15:44;;;;;;;12.95;6.70;;;;;;;-0.91;83.30;99385.96;1683704;85;21156;-73
2021/03/20 03:18:20;;;;;;;13.05;6.83;;;;;;;-0.91;83.56;99396.20;1684118;85;21675;-74
2021/03/20 03:20:51;;;;;;;13.88;7.08;;;;;;;-0.91;83.58;99390.00;1684053;85;21405;-73
2021/03/20 03:23:22;;;;;;;15.23;5.92;;;;;;;-0.94;83.46;99392.66;1684078;85;21114;-73
2021/03/20 03:25:55;;;;;;;9.45;5.35;;;;;;;-0.97;83.56;99395.84;1684163;85;21176;-73
2021/03/20 03:28:40;;;;;;;10.35;5.10;;;;;;;-1.04;83.72;99400.56;1734946;82;20966;-72
2021/03/20 03:31:34;;;;;;;10.08;5.40;;;;;;;-1.06;84.12;99394.60;1662977;84;21064;-71
2021/03/20 03:34:52;;;;;;;12.85;5.70;;;;;;;-1.04;84.46;99397.87;1713902;83;21384;-73
2021/03/20 03:37:34;;;;;;;17.07;7.12;;;;;;;-1.00;84.58;99400.36;1658749;86;20967;-72
2021/03/20 03:40:10;;;;;;;12.28;5.87;;;;;;;-1.00;84.27;99404.41;1658821;86;21109;-73
2021/03/20 03:42:37;;;;;;;12.15;6.00;;;;;;;-0.99;84.11;99402.00;1659600;86;21145;-72
2021/03/20 03:45:11;;;;;;;14.35;6.37;;;;;;;-1.01;83.90;99400.89;1659393;86;21636;-72
2021/03/20 03:47:38;;;;;;;12.05;6.55;;;;;;;-1.03;83.86;99404.36;1658259;86;21390;-72
2021/03/20 03:50:12;;;;;;;14.45;7.87;;;;;;;-1.04;83.82;99408.12;1658258;86;21153;-72
2021/03/20 03:52:39;;;;;;;18.42;9.18;;;;;;;-1.04;83.94;99404.61;1658068;86;21126;-71
2021/03/20 03:55:08;;;;;;;27.02;9.98;;;;;;;-1.06;83.89;99407.55;1657946;86;21133;-72
2021/03/20 03:58:10;;;;;;;22.40;10.35;;;;;;;-1.09;83.98;99412.06;1658102;86;21173;-72
2021/03/20 04:00:50;;;;;;;20.35;9.68;;;;;;;-1.12;83.93;99409.86;1658426;86;22530;-74
2021/03/20 04:03:44;;;;;;;16.15;8.30;;;;;;;-1.16;84.03;99413.31;1658020;85;21031;-73
2021/03/20 04:06:21;;;;;;;23.50;7.42;;;;;;;-1.19;84.16;99411.92;1649297;86;21096;-72
2021/03/20 04:09:21;;;;;;;18.65;6.92;;;;;;;-1.18;84.37;99412.21;1665662;86;21171;-72
2021/03/20 04:12:06;;;;;;;12.30;5.85;;;;;;;-1.15;84.44;99414.91;1637331;87;21221;-71
2021/03/20 04:14:56;;;;;;;9.88;5.45;;;;;;;-1.17;84.38;99413.02;1665825;85;21570;-71
2021/03/20 04:17:32;;;;;;;14.98;5.92;;;;;;;-1.20;84.50;99419.71;1665700;86;21109;-71
2021/03/20 04:20:17;;;;;;;17.12;6.17;;;;;;;-1.22;84.66;99416.98;1665919;86;20952;-73
2021/03/20 04:22:56;;;;;;;12.68;6.40;;;;;;;-1.25;84.74;99423.66;1665678;86;21193;-73
2021/03/20 04:25:50;;;;;;;13.25;6.97;;;;;;;-1.25;84.95;99426.88;1665842;86;21054;-74
2021/03/20 04:28:39;;;;;;;14.98;7.28;;;;;;;-1.21;85.07;99426.69;1665906;86;21398;-73
2021/03/20 04:31:21;;;;;;;14.73;7.65;;;;;;;-1.20;85.02;99430.48;1665674;86;21117;-73
2021/03/20 04:34:12;;;;;;;22.87;9.73;;;;;;;-1.21;85.05;99428.03;1666099;86;21042;-73
2021/03/20 04:36:51;;;;;;;25.17;10.15;;;;;;;-1.21;85.15;99431.55;1666899;85;21082;-73
2021/03/20 04:39:22;;;;;;;26.85;12.15;;;;;;;-1.19;85.30;99434.00;1665686;86;21177;-73
2021/03/20 04:41:51;;;;;;;;;;;;;;;-1.17;85.21;99439.96;1639481;87;21410;-72
2021/03/20 04:44:18;;;;;;;19.73;8.93;;;;;;;-1.13;85.29;99449.16;1640386;87;20223;-71
2021/03/20 04:46:47;;;;;;;20.97;8.80;;;;;;;-1.11;85.31;99449.21;1610514;87;21739;-72
2021/03/20 04:49:29;;;;;;;17.70;7.60;;;;;;;-1.06;85.26;99448.48;1640673;87;21192;-73
2021/03/20 04:52:20;;;;;;;14.65;7.50;;;;;;;-1.02;85.16;99453.68;1640719;87;21176;-73
2021/03/20 04:54:47;;;;;;;19.98;8.03;;;;;;;-0.98;84.97;99456.70;1640417;87;21211;-70
2021/03/20 04:57:32;;;;;;;17.70;8.05;;;;;;;-1.00;84.92;99462.34;1640526;87;21105;-69
2021/03/20 05:00:23;;;;;;;15.35;7.47;;;;;;;-0.97;85.10;99456.47;1640464;87;21117;-69
2021/03/20 05:02:59;;;;;;;35.33;11.75;;;;;;;-0.95;84.96;99462.43;1615049;87;21033;-69
2021/03/20 05:05:52;;;;;;;24.35;10.15;;;;;;;-0.92;84.95;99463.82;1652343;84;21170;-74
2021/03/20 05:08:38;;;;;;;26.25;9.18;;;;;;;-0.90;84.81;99467.09;1666163;86;21457;-74
2021/03/20 05:11:17;;;;;;;14.07;7.28;;;;;;;-0.89;84.66;99467.37;1666289;86;21066;-74
2021/03/20 05:14:13;;;;;;;14.25;7.17;;;;;;;-0.86;84.74;99469.59;1666071;86;21063;-74
2021/03/20 05:16:53;;;;;;;22.62;9.05;;;;;;;-0.79;84.81;99472.95;1666121;86;21107;-74
2021/03/20 05:19:22;;;;;;;16.25;7.75;;;;;;;-0.73;84.69;99471.45;1666168;86;21083;-74
2021/03/20 05:21:50;;;;;;;17.57;6.87;;;;;;;-0.69;84.29;99479.86;1666226;86;21687;-74
2021/03/20 05:24:31;;;;;;;16.82;7.12;;;;;;;-0.67;84.24;99477.74;1666081;86;21138;-74
2021/03/20 05:27:01;;;;;;;21.05;9.63;;;;;;;-0.61;84.18;99479.99;1666135;86;21197;-70
2021/03/20 05:29:29;;;;;;;13.30;5.95;;;;;;;-0.60;83.98;99491.88;1666226;86;21035;-70
2021/03/20 05:31:57;;;;;;;9.33;4.55;;;;;;;-0.58;84.01;99492.98;1666284;86;21586;-69
2021/03/20 05:34:37;;;;;;;9.90;5.00;;;;;;;-0.56;83.79;99486.78;1666297;86;21626;-68
2021/03/20 05:37:06;;;;;;;12.65;5.58;;;;;;;-0.57;83.82;99491.89;1674295;85;21106;-69
2021/03/20 05:39:33;;;;;;;11.43;5.20;;;;;;;-0.54;83.87;99494.10;1651094;87;21068;-70
2021/03/20 05:42:39;;;;;;;14.10;5.90;;;;;;;-0.51;83.65;99496.31;1649484;87;21225;-69
2021/03/20 05:45:30;;;;;;;13.05;5.58;;;;;;;-0.53;83.46;99489.81;1651038;87;21139;-70
2021/03/20 05:48:15;;;;;;;11.33;5.62;;;;;;;-0.54;83.59;99496.80;1649391;87;21297;-70
2021/03/20 05:51:13;;;;;;;11.80;5.78;;;;;;;-0.52;83.60;99502.77;1650595;87;21202;-74
2021/03/20 05:54:05;;;;;;;10.00;5.78;;;;;;;-0.48;83.67;99499.34;1650930;87;21100;-75
2021/03/20 05:56:38;;;;;;;13.20;6.03;;;;;;;-0.42;83.58;99500.23;1678042;85;21197;-76
2021/03/20 05:59:46;;;;;;;26.17;8.00;;;;;;;-0.35;83.65;99504.94;1651049;87;21183;-76
2021/03/20 06:02:43;;;;;;;11.60;5.33;;;;;;;-0.30;83.34;99499.63;1649482;87;22517;-76
2021/03/20 06:05:32;;;;;;;10.95;5.83;;;;;;;-0.31;82.48;99503.38;1564136;91;21282;-75
2021/03/20 06:08:46;;;;;;;12.37;5.90;;;;;;;-0.30;82.93;99510.95;1639047;87;21240;-71
2021/03/20 06:11:47;;;;;;;11.12;4.83;;;;;;;-0.23;83.87;99511.06;1649644;86;21148;-70
2021/03/20 06:15:04;;;;;;;12.35;6.20;;;;;;;-0.09;84.03;99514.25;1679982;85;21104;-71
2021/03/20 06:18:12;;;;;;;16.85;8.18;;;;;;;0.00;83.53;99515.47;1663349;84;21853;-72
2021/03/20 06:21:05;;;;;;;21.07;9.08;;;;;;;0.08;83.09;99516.91;1682963;84;21174;-73
2021/03/20 06:24:14;;;;;;;15.13;6.78;;;;;;;0.12;82.61;99518.04;1684558;84;21170;-72
2021/03/20 06:26:42;;;;;;;11.33;5.75;;;;;;;0.15;82.76;99518.36;1681971;84;21120;-74
2021/03/20 06:29:22;;;;;;;11.90;5.97;;;;;;;0.22;83.02;99523.59;1684380;84;21013;-72
2021/03/20 06:32:01;;;;;;;10.45;4.83;;;;;;;0.28;82.45;99526.64;1684084;84;21251;-71
2021/03/20 06:34:42;;;;;;;10.40;5.35;;;;;;;0.33;82.16;99524.02;1668016;84;21188;-72
2021/03/20 06:37:18;;;;;;;9.43;5.15;;;;;;;0.38;80.54;99518.68;1672734;85;21132;-73
2021/03/20 06:40:18;;;;;;;8.90;5.10;;;;;;;0.38;80.23;99518.68;1668084;86;21691;-72
2021/03/20 06:42:46;;;;;;;11.75;5.20;;;;;;;0.43;80.52;99525.50;1702373;83;21689;-73
2021/03/20 06:45:21;;;;;;;7.85;4.12;;;;;;;0.50;80.58;99527.48;1728469;83;21672;-72
2021/03/20 06:47:53;;;;;;;10.13;5.78;;;;;;;0.59;80.36;99527.30;1721099;83;21169;-76
2021/03/20 06:50:29;;;;;;;9.43;4.92;;;;;;;0.62;79.44;99526.80;1706769;83;21157;-74
2021/03/20 06:53:05;;;;;;;10.88;5.90;;;;;;;0.69;78.42;99533.91;1688919;84;21176;-75
2021/03/20 06:55:41;;;;;;;10.60;6.33;;;;;;;0.71;78.56;99529.07;1689410;85;21255;-73
2021/03/20 06:58:33;;;;;;;9.95;5.67;;;;;;;0.74;78.39;99532.09;1689747;85;21832;-77
2021/03/20 07:01:20;;;;;;;12.90;7.10;;;;;;;0.83;78.49;99529.76;1689754;85;21227;-74
2021/03/20 07:04:03;;;;;;;15.28;6.80;;;;;;;0.94;78.98;99535.56;1653778;85;21137;-74
2021/03/20 07:06:53;;;;;;;9.10;5.00;;;;;;;1.00;78.52;99539.96;1670561;85;21081;-73
2021/03/20 07:09:21;;;;;;;12.30;6.03;;;;;;;1.12;78.04;99535.23;1689200;85;21156;-75
2021/03/20 07:12:17;;;;;;;10.18;5.47;;;;;;;1.23;77.65;99541.53;1689904;85;22191;-79
2021/03/20 07:14:54;;;;;;;13.83;6.22;;;;;;;1.26;76.21;99544.55;1688639;85;21209;-75
2021/03/20 07:17:27;;;;;;;16.42;5.67;;;;;;;1.26;75.09;99550.48;1683857;85;21081;-77
2021/03/20 07:20:18;;;;;;;14.03;5.67;;;;;;;1.26;75.44;99555.90;1689646;83;21171;-81
2021/03/20 07:22:49;;;;;;;13.72;5.22;;;;;;;1.30;74.63;99555.14;1635808;86;21648;-75
2021/03/20 07:25:35;;;;;;;11.48;5.90;;;;;;;1.29;74.07;99555.39;1661780;86;21229;-73
2021/03/20 07:28:20;;;;;;;18.45;8.83;;;;;;;1.23;73.51;99553.16;1662015;86;21675;-77
2021/03/20 07:31:08;;;;;;;21.30;10.28;;;;;;;1.15;73.97;99558.24;1662130;86;21620;-74
2021/03/20 07:33:47;;;;;;;28.10;12.18;;;;;;;1.21;74.77;99558.02;1662112;86;21664;-70
2021/03/20 07:36:32;;;;;;;18.98;9.23;;;;;;;1.37;74.62;99558.17;1662201;86;21752;-72
2021/03/20 07:39:14;;;;;;;10.65;5.35;;;;;;;1.55;75.72;99563.23;1685339;84;22382;-79
2021/03/20 07:42:03;;;;;;;11.73;6.00;;;;;;;1.63;72.37;99566.83;1681275;84;21089;-78
2021/03/20 07:44:55;;;;;;;8.53;5.08;;;;;;;1.59;72.99;99565.16;1691642;84;21191;-78
2021/03/20 07:47:30;;;;;;;12.18;6.40;;;;;;;1.59;71.44;99571.11;1692204;84;21105;-78
2021/03/20 07:50:21;;;;;;;12.55;7.15;;;;;;;1.69;71.71;99573.91;1692379;84;21651;-78
2021/03/20 07:53:18;;;;;;;13.43;6.40;;;;;;;1.77;71.22;99576.13;1680151;85;21293;-78
2021/03/20 07:56:08;;;;;;;13.43;7.30;;;;;;;1.87;69.82;99572.16;1680199;85;21196;-78
2021/03/20 07:58:46;;;;;;;12.58;6.35;;;;;;;1.97;70.39;99579.01;1680438;85;21180;-78
2021/03/20 08:01:24;;;;;;;14.45;7.00;;;;;;;2.19;70.49;99586.22;1680411;85;21085;-78
2021/03/20 08:04:01;;;;;;;9.68;4.78;;;;;;;2.37;70.22;99579.54;1680626;85;21053;-78
2021/03/20 08:06:42;;;;;;;10.95;5.65;;;;;;;2.50;69.35;99582.61;1680621;85;21901;-78
2021/03/20 08:09:24;;;;;;;10.23;5.42;;;;;;;2.54;68.95;99581.01;1680798;85;21117;-78
2021/03/20 08:12:03;;;;;;;11.63;5.53;;;;;;;2.61;69.27;99578.88;1680687;85;21124;-78
2021/03/20 08:14:37;;;;;;;11.08;5.65;;;;;;;2.79;68.64;99584.94;1680577;85;21060;-78
2021/03/20 08:17:05;;;;;;;8.93;4.80;;;;;;;2.98;66.95;99577.95;1680722;85;21105;-78
2021/03/20 08:19:32;;;;;;;10.95;5.65;;;;;;;3.09;66.39;99581.52;1680657;85;21174;-77
2021/03/20 08:22:32;;;;;;;10.23;5.28;;;;;;;3.21;66.69;99580.75;1680414;85;20911;-78
2021/03/20 08:25:19;;;;;;;7.75;4.60;;;;;;;3.47;66.65;99585.14;1680662;85;21561;-77
2021/03/20 08:28:25;;;;;;;9.50;4.87;;;;;;;3.84;65.24;99586.28;1680544;85;21157;-78
2021/03/20 08:31:10;;;;;;;11.60;5.42;;;;;;;4.20;63.63;99583.55;1637720;85;21073;-77
2021/03/20 08:34:05;;;;;;;7.80;3.95;;;;;;;4.43;62.82;99581.63;1680042;85;22717;-79
2021/03/20 08:36:41;;;;;;;7.53;4.45;;;;;;;4.69;61.98;99582.91;1680388;85;21049;-78
2021/03/20 08:39:38;;;;;;;12.23;5.60;;;;;;;5.18;58.17;99576.20;1702478;84;21017;-79
2021/03/20 08:42:58;;;;;;;10.55;4.85;;;;;;;5.18;58.17;99576.20;1702483;84;21219;-79
2021/03/20 08:45:53;;;;;;;8.55;4.22;;;;;;;5.20;57.76;99580.24;1679569;84;21132;-79
2021/03/20 08:48:53;;;;;;;12.73;5.10;;;;;;;5.21;56.74;99577.78;1685764;84;21296;-79
2021/03/20 08:51:32;;;;;;;9.75;5.20;;;;;;;5.38;57.42;99569.81;1702122;84;21117;-79
2021/03/20 08:54:36;;;;;;;9.75;5.78;;;;;;;5.62;55.62;99576.20;1702453;84;21029;-79
2021/03/20 08:57:54;;;;;;;8.83;4.42;;;;;;;5.84;56.80;99575.20;1701879;84;21124;-79
2021/03/20 09:00:45;;;;;;;12.53;4.67;;;;;;;6.25;55.37;99581.73;1702442;84;21088;-78
2021/03/20 09:03:16;;;;;;;7.45;4.85;;;;;;;6.42;52.68;99579.91;1702482;84;22175;-79
2021/03/20 09:06:03;;;;;;;8.38;4.97;;;;;;;6.19;54.01;99580.95;1702595;84;21112;-79
2021/03/20 09:08:38;;;;;;;8.30;4.65;;;;;;;6.10;54.79;99585.95;1665333;84;21080;-79
2021/03/20 09:11:11;;;;;;;8.53;4.40;;;;;;;6.06;53.97;99582.97;1702523;84;21662;-79
2021/03/20 09:13:48;;;;;;;;;;;;;;;5.94;54.19;99586.06;1705063;84;21136;-79
2021/03/20 09:16:39;;;;;;;8.93;4.65;;;;;;;5.78;54.19;99585.06;1681203;84;20733;-78
2021/03/20 09:19:11;;;;;;;9.43;4.75;;;;;;;5.72;54.07;99587.03;1702378;84;21163;-79
2021/03/20 09:21:39;;;;;;;8.35;4.70;;;;;;;5.62;54.85;99587.09;1702476;84;21583;-79
2021/03/20 09:24:18;;;;;;;10.43;5.33;;;;;;;5.51;55.63;99586.89;1702415;84;21611;-79
2021/03/20 09:26:49;;;;;;;9.68;5.12;;;;;;;5.35;56.53;99582.63;1702366;84;21635;-79
2021/03/20 09:29:28;;;;;;;8.15;4.72;;;;;;;5.14;57.19;99582.75;1702307;82;22122;-77
2021/03/20 09:32:03;;;;;;;12.43;4.45;;;;;;;5.14;57.19;99582.75;1680055;85;21682;-77
2021/03/20 09:34:37;;;;;;;11.25;5.95;;;;;;;4.91;58.13;99585.55;1702374;84;21551;-78
2021/03/20 09:37:10;;;;;;;10.43;4.62;;;;;;;4.67;57.72;99576.92;1701719;84;21141;-75
2021/03/20 09:39:45;;;;;;;8.30;4.55;;;;;;;4.67;57.72;99576.92;1690512;84;21164;-78
2021/03/20 09:42:30;;;;;;;8.40;4.87;;;;;;;4.49;58.63;99606.35;1697074;84;21831;-76
2021/03/20 09:45:09;;;;;;;8.35;4.28;;;;;;;4.35;59.38;99582.72;1697039;84;21148;-76
2021/03/20 09:47:56;;;;;;;9.98;5.42;;;;;;;4.35;59.15;99591.69;1662727;84;21049;-76
2021/03/20 09:50:31;;;;;;;8.33;4.85;;;;;;;4.41;57.65;99593.86;1697238;84;21529;-77
2021/03/20 09:53:14;;;;;;;7.15;4.40;;;;;;;4.42;58.29;99601.73;1697151;84;21032;-77
2021/03/20 09:55:50;;;;;;;12.03;5.78;;;;;;;4.53;59.36;99595.74;1665916;86;21523;-77
2021/03/20 09:58:24;;;;;;;13.00;5.80;;;;;;;4.61;60.19;99597.36;1665671;86;21134;-78
2021/03/20 10:00:57;;;;;;;9.10;4.40;;;;;;;4.75;59.34;99592.67;1627810;87;21160;-76
2021/03/20 10:03:47;;;;;;;7.45;4.22;;;;;;;4.82;57.95;99598.64;1638896;87;20982;-76
2021/03/20 10:06:34;;;;;;;7.85;3.60;;;;;;;4.80;57.00;99594.02;1638796;87;21109;-76
2021/03/20 10:09:13;;;;;;;4.78;3.40;;;;;;;4.85;55.59;99600.27;1613357;87;21228;-78
2021/03/20 10:11:59;;;;;;;5.78;3.83;;;;;;;4.90;55.45;99599.44;1646672;86;21101;-80
2021/03/20 10:14:30;;;;;;;7.10;3.70;;;;;;;4.87;55.29;99598.63;1612670;89;21544;-78
2021/03/20 10:17:15;;;;;;;6.58;3.50;;;;;;;4.78;55.44;99596.20;1645761;86;21173;-79
2021/03/20 10:19:57;;;;;;;6.12;3.77;;;;;;;4.78;55.44;99596.20;1631826;88;20999;-78
2021/03/20 10:22:30;;;;;;;7.10;4.60;;;;;;;5.10;56.52;99595.83;1619276;88;21170;-80
2021/03/20 10:24:58;;;;;;;14.53;4.85;;;;;;;6.10;52.74;99591.40;1620465;87;21066;-80
2021/03/20 10:27:35;;;;;;;6.05;3.83;;;;;;;6.64;53.49;99589.78;1646993;87;21183;-82
2021/03/20 10:30:19;;;;;;;6.58;3.62;;;;;;;6.64;53.49;99589.78;1647025;87;21096;-83
2021/03/20 10:33:09;;;;;;;8.83;3.52;;;;;;;7.15;51.57;99581.00;1647050;86;21186;-80
2021/03/20 10:35:38;;;;;;;7.97;4.10;;;;;;;7.53;50.53;99588.11;1645744;87;21203;-80
2021/03/20 10:38:25;;;;;;;7.47;4.12;;;;;;;7.75;49.22;99588.08;1653460;84;21214;-80
2021/03/20 10:41:00;;;;;;;6.62;4.03;;;;;;;7.82;49.18;99592.06;1665492;86;21494;-78
2021/03/20 10:43:27;;;;;;;7.50;3.72;;;;;;;7.77;47.25;99592.70;1665219;86;21555;-79
2021/03/20 10:45:56;;;;;;;7.53;3.37;;;;;;;7.64;47.23;99588.78;1664352;86;21187;-79
2021/03/20 10:48:25;;;;;;;14.07;5.37;;;;;;;7.41;47.51;99586.95;1665380;86;21822;-79
2021/03/20 10:51:03;;;;;;;6.95;3.70;;;;;;;7.08;48.43;99584.63;1665323;86;20974;-80
2021/03/20 10:53:48;;;;;;;7.03;3.83;;;;;;;6.61;50.24;99591.72;1665419;86;21096;-80
2021/03/20 10:56:30;;;;;;;9.45;4.15;;;;;;;6.20;51.17;99592.67;1665060;86;21473;-80
2021/03/20 10:59:37;;;;;;;11.90;5.97;;;;;;;5.92;51.41;99591.53;1873583;76;22773;-78
2021/03/20 11:02:30;;;;;;;7.58;4.22;;;;;;;5.63;53.15;99589.55;1829238;77;20912;-79
2021/03/20 11:05:25;;;;;;;8.93;4.90;;;;;;;5.60;53.76;99591.47;1841703;78;21308;-80
2021/03/20 11:08:15;;;;;;;7.42;4.37;;;;;;;5.62;55.09;99599.36;1841669;78;20960;-83
2021/03/20 11:10:51;;;;;;;7.37;4.10;;;;;;;5.55;54.80;99588.77;1805637;78;20904;-76
2021/03/20 11:13:38;;;;;;;10.93;5.95;;;;;;;5.06;55.62;99596.12;1841691;77;20893;-83
2021/03/20 11:16:16;;;;;;;11.88;6.62;;;;;;;5.06;55.62;99596.12;1839313;76;22299;-80
2021/03/20 11:18:57;;;;;;;12.75;5.97;;;;;;;4.84;56.12;99592.38;1830610;76;21357;-81
2021/03/20 11:21:37;;;;;;;10.60;5.45;;;;;;;4.38;56.66;99602.02;1729554;81;21611;-79
2021/03/20 11:24:29;;;;;;;11.40;5.83;;;;;;;4.38;56.66;99602.02;1750547;80;21041;-74
2021/03/20 11:26:56;;;;;;;10.68;5.55;;;;;;;4.33;59.53;99593.86;1749925;82;21187;-77
2021/03/20 11:29:28;;;;;;;10.72;5.22;;;;;;;4.21;61.62;99602.84;1750339;81;21733;-77
2021/03/20 11:32:02;;;;;;;9.23;4.40;;;;;;;4.09;63.17;99595.50;1751236;82;21311;-76
2021/03/20 11:34:40;;;;;;;10.88;4.85;;;;;;;4.01;63.22;99604.23;1750977;80;21559;-75
2021/03/20 11:37:11;;;;;;;7.85;4.10;;;;;;;3.94;63.59;99599.88;1751281;82;21008;-74
2021/03/20 11:39:39;;;;;;;8.73;4.30;;;;;;;3.81;63.80;99607.19;1751269;81;21171;-76
2021/03/20 11:42:12;;;;;;;13.40;4.92;;;;;;;3.68;65.16;99614.50;1751284;82;20945;-76
2021/03/20 11:44:45;;;;;;;11.30;5.37;;;;;;;3.57;65.56;99608.77;1751329;82;21364;-77
2021/03/20 11:47:27;;;;;;;9.75;4.80;;;;;;;3.41;66.93;99609.30;1706310;82;21608;-78
2021/03/20 11:49:59;;;;;;;6.90;4.50;;;;;;;3.26;68.18;99609.25;1705825;84;20922;-75
2021/03/20 11:52:32;;;;;;;6.53;4.20;;;;;;;3.12;69.92;99608.11;1705902;82;20938;-78
2021/03/20 11:55:09;;;;;;;8.38;4.83;;;;;;;2.98;71.01;99615.91;1704437;84;21481;-79
2021/03/20 11:57:39;;;;;;;15.45;5.30;;;;;;;2.86;72.46;99611.27;1710285;82;21375;-76
2021/03/20 12:00:38;;;;;;;7.72;4.70;;;;;;;2.81;73.44;99613.42;1732872;81;21672;-78
2021/03/20 12:03:23;;;;;;;9.23;4.90;;;;;;;2.81;74.42;99610.70;1726806;81;21001;-80
2021/03/20 12:06:19;;;;;;;10.18;4.53;;;;;;;2.72;75.23;99607.40;1714690;81;20990;-73
2021/03/20 12:08:53;;;;;;;7.08;4.22;;;;;;;2.60;76.27;99612.48;1712955;82;21068;-75
2021/03/20 12:11:23;;;;;;;9.25;4.58;;;;;;;2.54;76.32;99604.05;1735412;81;21661;-73
2021/03/20 12:13:56;;;;;;;11.80;6.23;;;;;;;2.47;76.48;99603.45;1708880;82;21088;-82
2021/03/20 12:16:29;;;;;;;12.78;5.80;;;;;;;2.43;75.92;99597.46;1735542;82;21260;-78
2021/03/20 12:19:20;;;;;;;8.18;3.98;;;;;;;2.34;76.26;99597.13;1735362;81;20909;-80
2021/03/20 12:22:09;;;;;;;8.35;4.20;;;;;;;2.22;76.89;99603.30;1735364;81;21146;-81
2021/03/20 12:24:48;;;;;;;8.83;4.62;;;;;;;2.14;77.72;99599.72;1731439;81;21447;-79
2021/03/20 12:27:29;;;;;;;7.92;4.65;;;;;;;2.12;78.48;99599.98;1735445;82;21520;-80
2021/03/20 12:30:20;;;;;;;7.67;4.35;;;;;;;2.13;78.84;99598.91;1735343;81;20946;-82